Time;durP1;ratioP1;P1;durP2;ratioP2;P2;SDS_P1;SDS_P2;PMS_P1;PMS_P2;Temp;Humidity;BMP_temperature;BMP_pressure;BME280_temperature;BME280_humidity;BME280_pressure;Samples;Min_cycle;Max_cycle;Signal;HPM_P1;HPM_P2
2023/03/14 00:03:01;;;;;;;2.03;0.30;;;;;;;12.25;79.29;98355.25;12977368;22;20031;-63
2023/03/14 00:08:02;;;;;;;3.00;0.32;;;;;;;12.35;78.83;98349.25;12977027;22;20035;-65
2023/03/14 00:13:04;;;;;;;0.93;0.30;;;;;;;12.38;78.68;98364.94;12949181;22;20027;-63
2023/03/14 00:18:05;;;;;;;2.85;0.93;;;;;;;12.40;78.65;98374.44;12972905;22;20024;-63
2023/03/14 00:23:07;;;;;;;3.92;0.47;;;;;;;12.47;78.38;98383.19;12976880;22;20019;-65
2023/03/14 00:28:08;;;;;;;1.27;0.32;;;;;;;12.48;78.36;98359.78;12946688;22;20027;-63
2023/03/14 00:33:10;;;;;;;1.15;0.50;;;;;;;12.43;78.65;98381.22;12977005;22;20027;-66
2023/03/14 00:38:11;;;;;;;1.05;0.40;;;;;;;12.44;78.37;98396.31;12976512;22;20097;-63
2023/03/14 00:43:12;;;;;;;1.65;0.43;;;;;;;12.49;78.40;98372.19;12976705;22;20028;-65
2023/03/14 00:48:14;;;;;;;3.53;0.40;;;;;;;12.45;78.48;98366.44;12977362;22;20023;-63
2023/03/14 00:53:16;;;;;;;1.80;0.40;;;;;;;12.49;78.33;98346.06;12977135;22;20031;-65
2023/03/14 00:58:18;;;;;;;4.85;0.40;;;;;;;12.54;78.03;98328.34;12975912;22;20082;-65
2023/03/14 01:03:19;;;;;;;3.35;0.50;;;;;;;12.50;77.62;98312.69;12976122;22;20077;-66
2023/03/14 01:08:21;;;;;;;6.47;0.47;;;;;;;12.50;77.40;98323.44;12977300;22;20031;-64
2023/03/14 01:13:22;;;;;;;1.02;0.40;;;;;;;12.51;77.45;98337.75;12975815;22;20027;-64
2023/03/14 01:18:24;;;;;;;3.80;0.47;;;;;;;12.48;77.29;98343.63;12974073;22;20043;-65
2023/03/14 01:23:25;;;;;;;2.28;0.50;;;;;;;12.57;76.84;98352.16;12976151;22;20073;-66
2023/03/14 01:28:27;;;;;;;3.22;0.50;;;;;;;12.58;76.87;98354.59;12976135;22;20089;-65
2023/03/14 01:33:28;;;;;;;2.38;0.38;;;;;;;12.59;76.99;98341.94;12976186;22;20081;-65
2023/03/14 01:38:34;;;;;;;3.05;0.30;;;;;;;12.62;76.89;98326.13;12975948;22;20031;-66
2023/03/14 01:43:35;;;;;;;6.03;0.40;;;;;;;12.64;76.78;98325.88;12975056;22;20027;-65
2023/03/14 01:49:03;;;;;;;5.95;0.35;;;;;;;12.66;76.78;98327.28;12972409;22;20073;-64
2023/03/14 01:54:15;;;;;;;5.32;0.40;;;;;;;12.69;76.61;98294.44;12903401;22;20349;-66
2023/03/14 01:59:16;;;;;;;2.97;0.32;;;;;;;12.64;76.72;98296.22;12985728;22;20039;-65
2023/03/14 02:04:20;;;;;;;2.83;0.30;;;;;;;12.61;76.95;98289.44;12974243;22;20140;-65
2023/03/14 02:09:22;;;;;;;3.33;0.73;;;;;;;12.63;76.61;98271.13;12973627;22;20023;-64
2023/03/14 02:14:30;;;;;;;1.73;0.30;;;;;;;12.69;76.54;98258.56;12975112;22;20019;-67
2023/03/14 02:19:56;;;;;;;3.47;0.30;;;;;;;12.68;75.94;98243.47;12972612;22;20625;-66
2023/03/14 02:25:07;;;;;;;2.33;0.28;;;;;;;12.68;76.13;98235.38;12971986;22;20011;-66
2023/03/14 02:30:13;;;;;;;1.02;0.22;;;;;;;12.62;75.59;98223.69;12981117;22;20732;-66
2023/03/14 02:35:20;;;;;;;2.67;0.43;;;;;;;12.56;75.91;98231.91;12973372;22;20023;-66
2023/03/14 02:40:22;;;;;;;6.00;1.33;;;;;;;12.55;76.27;98225.69;12977180;22;20620;-66
2023/03/14 02:45:23;;;;;;;1.95;0.32;;;;;;;12.57;75.73;98226.28;12975141;22;20023;-66
2023/03/14 02:50:28;;;;;;;4.07;0.30;;;;;;;12.62;75.80;98236.34;12974142;22;20023;-66
2023/03/14 02:55:30;;;;;;;4.15;0.65;;;;;;;12.64;75.49;98223.44;12973850;22;20437;-66
2023/03/14 03:00:33;;;;;;;6.65;0.40;;;;;;;12.59;75.86;98218.78;12973481;22;20073;-66
2023/03/14 03:05:34;;;;;;;3.03;0.43;;;;;;;12.54;75.67;98207.91;12974713;22;20015;-66
2023/03/14 03:10:36;;;;;;;3.25;0.40;;;;;;;12.56;75.23;98202.25;12972459;22;20024;-66
2023/03/14 03:15:37;;;;;;;5.75;0.47;;;;;;;12.62;74.89;98201.31;12973322;22;20077;-66
2023/03/14 03:20:39;;;;;;;4.47;0.20;;;;;;;12.66;74.16;98221.34;12972537;22;20024;-66
2023/03/14 03:25:40;;;;;;;4.10;0.45;;;;;;;12.69;74.52;98224.34;12975845;22;20431;-67
2023/03/14 03:30:42;;;;;;;2.45;0.22;;;;;;;12.70;74.22;98211.69;12977907;22;20057;-67
2023/03/14 03:35:45;;;;;;;3.00;0.50;;;;;;;12.59;74.34;98208.00;12979211;22;20318;-67
2023/03/14 03:40:47;;;;;;;2.97;0.50;;;;;;;12.46;74.27;98214.50;12980774;22;20031;-65
2023/03/14 03:45:48;;;;;;;4.30;0.60;;;;;;;12.44;74.52;98213.94;12982191;22;20093;-65
2023/03/14 03:50:50;;;;;;;7.18;0.47;;;;;;;12.43;73.96;98192.59;12964313;22;20027;-66
2023/03/14 03:55:51;;;;;;;3.25;0.30;;;;;;;12.42;73.77;98191.78;12981281;22;20070;-64
2023/03/14 04:00:54;;;;;;;4.88;0.45;;;;;;;12.46;73.98;98176.78;12980147;22;20028;-65
2023/03/14 04:06:05;;;;;;;1.55;0.52;;;;;;;12.51;73.77;98184.13;12976566;22;20019;-66
2023/03/14 04:11:07;;;;;;;2.47;0.40;;;;;;;12.54;73.46;98169.34;12952767;22;20039;-66
2023/03/14 04:16:16;;;;;;;5.53;0.40;;;;;;;12.52;73.60;98177.69;12977733;22;20027;-66
2023/03/14 04:21:17;;;;;;;5.20;0.40;;;;;;;12.53;73.63;98178.50;12986541;22;20023;-66
2023/03/14 04:26:19;;;;;;;1.98;0.20;;;;;;;12.55;73.28;98165.59;12978523;22;20545;-66
2023/03/14 04:31:21;;;;;;;4.45;0.45;;;;;;;12.53;73.44;98168.53;12979252;22;20028;-66
2023/03/14 04:36:22;;;;;;;2.45;0.20;;;;;;;12.56;73.15;98151.91;12976510;22;20019;-65
2023/03/14 04:41:24;;;;;;;5.10;0.50;;;;;;;12.56;73.17;98159.13;12976745;22;20031;-67
2023/03/14 04:46:25;;;;;;;2.60;0.40;;;;;;;12.62;73.07;98150.09;12976427;22;20030;-66
2023/03/14 04:51:27;;;;;;;2.60;0.30;;;;;;;12.61;72.94;98146.56;12980256;22;20020;-66
2023/03/14 04:56:28;;;;;;;1.08;0.30;;;;;;;12.57;72.88;98144.63;12976793;22;20419;-65
2023/03/14 05:01:30;;;;;;;3.85;0.20;;;;;;;12.61;72.46;98145.75;12977326;22;20041;-65
2023/03/14 05:06:31;;;;;;;2.42;0.60;;;;;;;12.56;72.45;98149.19;12975955;22;20337;-65
2023/03/14 05:11:33;;;;;;;4.50;0.50;;;;;;;12.63;72.33;98147.16;12949203;22;20022;-66
2023/03/14 05:16:34;;;;;;;1.63;0.30;;;;;;;12.66;72.45;98149.38;12973457;22;20035;-66
2023/03/14 05:21:35;;;;;;;4.47;0.35;;;;;;;12.67;72.24;98159.06;12979900;22;20019;-65
2023/03/14 05:26:37;;;;;;;6.05;0.20;;;;;;;12.70;71.93;98139.72;12977460;22;20026;-66
2023/03/14 05:31:38;;;;;;;3.95;0.28;;;;;;;12.72;71.78;98131.41;12975975;22;20024;-65
2023/03/14 05:36:40;;;;;;;4.70;0.68;;;;;;;12.70;71.95;98125.44;12974330;22;20398;-66
2023/03/14 05:41:42;;;;;;;4.13;0.55;;;;;;;12.72;71.37;98122.47;12973414;22;20448;-72
2023/03/14 05:46:43;;;;;;;4.78;0.30;;;;;;;12.69;71.52;98113.00;12969990;22;20026;-71
2023/03/14 05:51:44;;;;;;;1.33;0.20;;;;;;;12.67;70.96;98124.03;12968497;22;20410;-75
2023/03/14 05:56:46;;;;;;;1.90;0.28;;;;;;;12.64;71.07;98113.75;12943930;22;20015;-72
2023/03/14 06:01:47;;;;;;;1.77;0.30;;;;;;;12.63;70.90;98090.53;12942266;22;20077;-73
2023/03/14 06:06:48;;;;;;;3.33;0.30;;;;;;;12.57;70.85;98083.44;12966484;22;20027;-74
2023/03/14 06:11:50;;;;;;;2.72;0.20;;;;;;;12.62;70.49;98085.41;12970407;22;20024;-69
2023/03/14 06:16:52;;;;;;;1.10;0.20;;;;;;;12.64;70.60;98081.41;12968281;22;20023;-73
2023/03/14 06:21:54;;;;;;;2.85;0.50;;;;;;;12.61;70.53;98076.50;12970393;22;20024;-75
2023/03/14 06:26:55;;;;;;;0.52;0.47;;;;;;;12.57;70.07;98078.06;12970449;22;20081;-70
2023/03/14 06:31:57;;;;;;;0.85;0.30;;;;;;;12.61;70.18;98089.16;12969047;22;20429;-68
2023/03/14 06:36:58;;;;;;;3.03;0.40;;;;;;;12.63;69.91;98090.53;12972210;22;20025;-70
2023/03/14 06:42:00;;;;;;;1.77;0.22;;;;;;;12.67;69.72;98072.81;12973172;22;20082;-67
2023/03/14 06:47:01;;;;;;;2.45;0.30;;;;;;;12.70;70.01;98085.00;12975223;22;20075;-66
2023/03/14 06:52:03;;;;;;;1.05;0.10;;;;;;;12.79;69.68;98085.41;12976046;22;20028;-72
2023/03/14 06:57:04;;;;;;;6.70;0.22;;;;;;;12.89;69.60;98091.78;12972272;22;20016;-71
2023/03/14 07:02:10;;;;;;;1.50;0.25;;;;;;;12.91;69.38;98083.41;12975293;22;20035;-70
2023/03/14 07:07:11;;;;;;;3.88;0.57;;;;;;;12.90;69.82;98093.38;12978486;22;20058;-68
2023/03/14 07:12:13;;;;;;;3.00;0.40;;;;;;;12.88;69.38;98094.72;12975212;22;20539;-72
2023/03/14 07:17:14;;;;;;;1.98;0.10;;;;;;;12.83;69.37;98125.09;12969833;22;20530;-71
2023/03/14 07:22:15;;;;;;;1.92;0.22;;;;;;;12.83;69.54;98113.50;12974566;22;20024;-71
2023/03/14 07:27:17;;;;;;;3.03;0.20;;;;;;;12.86;69.55;98111.13;12981887;22;20024;-70
2023/03/14 07:32:18;;;;;;;0.98;0.40;;;;;;;12.90;69.03;98112.25;12997725;22;20024;-69
2023/03/14 07:37:20;;;;;;;1.15;0.10;;;;;;;12.81;69.51;98108.34;12992969;22;20019;-69
2023/03/14 07:42:21;;;;;;;5.00;0.20;;;;;;;12.87;69.42;98110.09;12991054;22;20034;-69
2023/03/14 07:47:22;;;;;;;1.95;0.30;;;;;;;12.80;70.08;98101.34;12956604;22;20077;-70
2023/03/14 07:52:24;;;;;;;0.70;0.10;;;;;;;12.72;70.02;98112.53;12949071;22;20028;-69
2023/03/14 07:57:25;;;;;;;2.00;0.40;;;;;;;12.53;70.79;98113.81;12923145;22;20122;-69
2023/03/14 08:02:27;;;;;;;1.65;0.20;;;;;;;12.17;71.89;98121.28;12971441;22;20028;-69
2023/03/14 08:07:28;;;;;;;3.72;0.63;;;;;;;12.00;72.06;98124.72;12976735;22;20110;-69
2023/03/14 08:12:30;;;;;;;1.98;0.30;;;;;;;11.97;72.58;98119.03;12988622;22;20019;-69
2023/03/14 08:17:32;;;;;;;1.42;0.28;;;;;;;12.01;72.10;98106.72;12992941;22;20069;-69
2023/03/14 08:22:34;;;;;;;2.60;0.20;;;;;;;12.14;72.33;98105.59;12957091;22;20106;-68
2023/03/14 08:27:37;;;;;;;9.10;0.30;;;;;;;12.22;72.13;98118.66;12957074;22;20020;-70
2023/03/14 08:32:39;;;;;;;3.78;0.40;;;;;;;12.23;72.16;98106.84;12984633;22;20023;-68
2023/03/14 08:37:41;;;;;;;0.75;0.20;;;;;;;12.20;72.36;98110.81;12945461;22;20019;-69
2023/03/14 08:42:42;;;;;;;1.70;0.30;;;;;;;12.25;71.59;98097.47;12972426;22;20854;-69
2023/03/14 08:47:44;;;;;;;1.90;0.35;;;;;;;12.36;72.10;98095.78;12971148;22;20024;-70
2023/03/14 08:52:46;;;;;;;0.70;0.30;;;;;;;12.42;71.46;98094.81;12972814;22;20019;-68
2023/03/14 08:57:47;;;;;;;2.97;0.30;;;;;;;12.57;71.27;98101.50;12971941;22;20524;-70
2023/03/14 09:02:49;;;;;;;1.55;0.38;;;;;;;12.70;71.46;98098.47;12971253;22;20710;-69
2023/03/14 09:07:50;;;;;;;3.28;0.73;;;;;;;12.93;70.66;98108.25;12971427;22;20031;-69
2023/03/14 09:12:51;;;;;;;2.60;0.30;;;;;;;12.91;71.46;98118.47;12972364;22;20023;-69
2023/03/14 09:17:53;;;;;;;2.38;0.30;;;;;;;12.83;71.42;98117.00;12978413;22;20050;-69
2023/03/14 09:22:54;;;;;;;0.82;0.25;;;;;;;12.67;71.71;98110.56;12973798;22;20028;-69
2023/03/14 09:27:56;;;;;;;2.90;0.35;;;;;;;12.75;71.98;98122.00;12970626;22;20822;-68
2023/03/14 09:32:58;;;;;;;8.20;0.30;;;;;;;12.47;72.50;98147.94;12973230;22;20077;-68
2023/03/14 09:38:00;;;;;;;0.75;0.35;;;;;;;12.12;73.51;98140.84;12973827;22;20420;-70
2023/03/14 09:43:01;;;;;;;3.28;0.40;;;;;;;12.02;74.10;98141.47;12972288;22;20020;-69
2023/03/14 09:48:04;;;;;;;3.72;0.82;;;;;;;11.76;75.05;98152.78;12981798;22;20113;-71
2023/03/14 09:53:18;;;;;;;3.60;0.60;;;;;;;11.50;76.00;98163.81;12973935;22;20027;-69
2023/03/14 09:58:21;;;;;;;2.08;0.70;;;;;;;11.40;76.84;98155.53;12975867;22;20038;-69
2023/03/14 10:03:31;;;;;;;0.55;0.40;;;;;;;11.43;76.98;98154.22;12946089;22;20023;-70
2023/03/14 10:08:32;;;;;;;2.10;0.75;;;;;;;11.49;76.99;98150.59;12975152;22;20023;-70
2023/03/14 10:13:33;;;;;;;2.85;0.82;;;;;;;11.51;77.07;98143.09;12973264;22;20028;-70
2023/03/14 10:18:35;;;;;;;2.55;0.65;;;;;;;11.52;76.92;98139.38;12971004;22;20019;-69
2023/03/14 10:23:37;;;;;;;2.40;0.98;;;;;;;11.68;76.72;98133.22;12974646;22;20032;-69
2023/03/14 10:28:47;;;;;;;2.10;1.08;;;;;;;11.60;76.79;98130.91;12974772;22;20074;-71
2023/03/14 10:34:04;;;;;;;11.95;1.33;;;;;;;11.73;76.59;98131.69;12973687;22;20464;-70
2023/03/14 10:39:18;;;;;;;1.20;0.30;;;;;;;11.84;76.39;98117.41;12975266;22;20089;-70
2023/03/14 10:44:25;;;;;;;2.10;0.50;;;;;;;11.78;77.13;98129.13;12977389;22;20077;-69
2023/03/14 10:49:36;;;;;;;;;;;;;;;11.75;77.71;98130.44;12976868;22;20050;-67
2023/03/14 10:54:37;;;;;;;2.28;0.70;;;;;;;11.71;77.93;98129.28;12978635;22;20328;-67
2023/03/14 10:59:42;;;;;;;1.58;0.50;;;;;;;11.74;77.86;98117.19;12977889;22;20020;-67
2023/03/14 11:05:00;;;;;;;1.40;0.50;;;;;;;11.76;77.93;98139.31;12977963;22;20019;-67
2023/03/14 11:10:26;;;;;;;2.88;0.57;;;;;;;11.68;78.22;98121.66;12980228;22;20028;-63
2023/03/14 11:15:45;;;;;;;1.60;0.60;;;;;;;11.69;78.24;98129.50;12976723;22;20019;-65
2023/03/14 11:21:36;;;;;;;3.72;0.85;;;;;;;11.75;78.28;98143.03;12976220;22;20077;-65
2023/03/14 11:26:51;;;;;;;1.00;0.90;;;;;;;11.71;78.28;98145.41;12867494;22;20506;-63
2023/03/14 11:31:57;;;;;;;1.48;0.93;;;;;;;11.75;78.80;98145.75;12975958;22;20388;-62
2023/03/14 11:37:04;;;;;;;3.60;1.42;;;;;;;11.82;78.74;98147.25;12928804;22;20472;-62
2023/03/14 11:42:15;;;;;;;2.78;1.42;;;;;;;11.79;78.77;98136.97;12981796;22;20101;-61
2023/03/14 11:47:27;;;;;;;2.28;1.70;;;;;;;11.88;79.01;98127.44;12981697;22;20023;-62
2023/03/14 11:52:46;;;;;;;8.05;1.80;;;;;;;12.02;78.79;98129.88;12928045;22;20081;-61
2023/03/14 11:57:51;;;;;;;3.50;2.20;;;;;;;12.08;79.19;98124.38;12985455;22;20031;-63
2023/03/14 12:03:14;;;;;;;5.07;1.38;;;;;;;11.98;79.72;98143.00;12953435;22;20356;-62
2023/03/14 12:08:24;;;;;;;4.70;1.08;;;;;;;11.65;80.64;98264.75;12954068;22;20847;-62
2023/03/14 12:13:37;;;;;;;4.82;0.20;;;;;;;10.51;80.98;98271.09;12954570;22;20103;-62
2023/03/14 12:18:40;;;;;;;0.10;0.00;;;;;;;9.99;81.20;98292.97;12953584;22;20468;-61
2023/03/14 12:23:45;;;;;;;0.00;0.00;;;;;;;9.55;81.71;98294.81;12982169;22;20023;-60
2023/03/14 12:28:56;;;;;;;0.00;0.00;;;;;;;9.36;81.73;98303.84;12951408;22;20062;-58
2023/03/14 12:34:10;;;;;;;0.10;0.00;;;;;;;9.24;81.96;98323.34;12977933;22;20024;-61
2023/03/14 12:39:35;;;;;;;0.00;0.00;;;;;;;9.36;81.50;98333.34;12984154;22;20102;-61
2023/03/14 12:44:48;;;;;;;0.20;0.10;;;;;;;9.43;81.86;98366.31;12978756;22;20027;-61
2023/03/14 12:49:53;;;;;;;0.08;0.00;;;;;;;9.38;81.08;98358.06;12978675;22;20023;-61
2023/03/14 12:54:59;;;;;;;0.00;0.00;;;;;;;9.56;80.19;98392.19;12951982;22;20050;-60
2023/03/14 13:00:19;;;;;;;0.17;0.10;;;;;;;9.62;78.80;98427.03;12948278;22;20134;-62
2023/03/14 13:05:23;;;;;;;0.10;0.10;;;;;;;9.83;78.16;98446.47;12946719;22;20360;-61
2023/03/14 13:10:30;;;;;;;0.77;0.10;;;;;;;9.99;76.23;98477.31;12973160;22;20031;-65
2023/03/14 13:15:42;;;;;;;0.10;0.10;;;;;;;10.12;74.72;98507.56;12987721;22;20054;-64
2023/03/14 13:20:52;;;;;;;0.30;0.20;;;;;;;10.34;75.15;98515.25;12955981;22;20023;-64
2023/03/14 13:25:55;;;;;;;3.28;0.10;;;;;;;10.56;74.28;98521.06;12955582;22;20050;-66
2023/03/14 13:31:00;;;;;;;0.20;0.20;;;;;;;10.76;73.63;98530.78;12973499;22;20099;-66
2023/03/14 13:36:04;;;;;;;0.35;0.10;;;;;;;10.95;71.74;98558.53;12944807;22;20453;-62
2023/03/14 13:41:07;;;;;;;0.25;0.20;;;;;;;11.16;69.83;98578.75;12973755;22;20026;-63
2023/03/14 13:46:19;;;;;;;0.17;0.13;;;;;;;11.28;70.49;98595.81;12975474;22;20054;-64
2023/03/14 13:51:22;;;;;;;0.10;0.03;;;;;;;10.65;71.02;98647.91;12971248;22;20041;-62
2023/03/14 13:56:27;;;;;;;0.88;0.10;;;;;;;10.23;72.06;98650.19;12944459;22;20106;-64
2023/03/14 14:01:34;;;;;;;0.05;0.00;;;;;;;10.68;71.88;98663.56;12972682;22;20027;-64
2023/03/14 14:06:46;;;;;;;0.10;0.10;;;;;;;10.63;69.75;98669.63;12945614;22;20094;-65
2023/03/14 14:12:01;;;;;;;1.15;0.00;;;;;;;10.65;68.28;98688.22;12945623;22;20030;-65
2023/03/14 14:17:21;;;;;;;0.20;0.10;;;;;;;10.63;68.15;98735.97;12969215;22;20016;-62
2023/03/14 14:22:22;;;;;;;0.00;0.00;;;;;;;10.16;69.56;98772.94;12946376;22;20032;-66
2023/03/14 14:27:31;;;;;;;0.10;0.10;;;;;;;9.93;69.05;98767.03;12970709;22;20024;-64
2023/03/14 14:32:39;;;;;;;0.00;0.00;;;;;;;9.58;69.24;98804.06;12945791;22;20020;-63
2023/03/14 14:37:43;;;;;;;2.35;0.10;;;;;;;9.47;69.32;98816.22;12972262;22;20031;-63
2023/03/14 14:42:45;;;;;;;1.20;0.10;;;;;;;9.73;68.89;98820.75;12971479;22;20089;-62
2023/03/14 14:47:52;;;;;;;0.10;0.10;;;;;;;9.85;68.66;98833.50;12980095;22;20024;-59
2023/03/14 14:52:58;;;;;;;;;;;;;;;9.88;69.42;98857.28;12959139;22;20034;-61
2023/03/14 14:58:32;;;;;;;0.20;0.10;;;;;;;9.78;68.81;98878.34;12960676;22;20118;-60
2023/03/14 15:03:34;;;;;;;0.10;0.10;;;;;;;9.73;68.88;98885.16;12959064;22;20030;-59
2023/03/14 15:08:37;;;;;;;0.52;0.20;;;;;;;9.68;68.43;98902.91;12970492;22;20027;-60
2023/03/14 15:13:39;;;;;;;1.23;0.20;;;;;;;9.70;68.52;98904.34;12935314;22;20020;-61
2023/03/14 15:18:42;;;;;;;0.30;0.30;;;;;;;9.86;68.33;98932.63;12977589;22;20081;-62
2023/03/14 15:23:44;;;;;;;0.38;0.03;;;;;;;9.78;69.28;98959.66;12981004;22;20039;-60
2023/03/14 15:28:46;;;;;;;0.10;0.10;;;;;;;9.44;70.24;98966.00;12981544;22;20089;-61
2023/03/14 15:33:48;;;;;;;0.10;0.00;;;;;;;8.86;71.84;98985.19;12984523;22;20334;-60
2023/03/14 15:38:51;;;;;;;0.10;0.03;;;;;;;8.63;71.73;98994.34;12980038;22;20024;-64
2023/03/14 15:43:54;;;;;;;0.32;0.10;;;;;;;8.25;72.31;99015.25;12977993;22;20077;-59
2023/03/14 15:48:55;;;;;;;0.13;0.10;;;;;;;8.04;72.38;99035.66;12975334;22;20023;-59
2023/03/14 15:53:56;;;;;;;1.05;0.20;;;;;;;8.11;72.52;99063.31;12977042;22;20027;-59
2023/03/14 15:58:58;;;;;;;0.25;0.00;;;;;;;8.16;72.14;99067.28;12988902;22;20024;-61
2023/03/14 16:04:02;;;;;;;0.20;0.10;;;;;;;8.16;72.16;99078.81;12976584;22;20034;-62
2023/03/14 16:09:04;;;;;;;0.70;0.10;;;;;;;8.22;71.88;99093.28;12977767;22;20020;-61
2023/03/14 16:14:06;;;;;;;1.23;0.10;;;;;;;8.28;71.93;99092.50;12991587;22;20497;-62
2023/03/14 16:19:07;;;;;;;0.30;0.10;;;;;;;8.13;72.40;99101.41;12977130;22;20024;-61
2023/03/14 16:24:09;;;;;;;0.10;0.00;;;;;;;8.20;72.30;99108.69;12977698;22;20024;-63
2023/03/14 16:29:10;;;;;;;0.45;0.00;;;;;;;8.29;72.33;99104.84;12989200;22;20097;-62
2023/03/14 16:34:12;;;;;;;0.25;0.10;;;;;;;8.51;71.93;99105.69;12974562;22;20415;-62
2023/03/14 16:39:13;;;;;;;0.13;0.00;;;;;;;8.26;72.84;99126.66;12969566;22;20077;-61
2023/03/14 16:44:14;;;;;;;1.20;0.08;;;;;;;8.29;72.53;99139.66;12977275;22;20023;-61
2023/03/14 16:49:16;;;;;;;0.40;0.20;;;;;;;8.41;72.57;99156.03;12946118;22;20086;-61
2023/03/14 16:54:17;;;;;;;0.95;0.30;;;;;;;8.21;72.37;99166.56;12972083;22;20068;-59
2023/03/14 16:59:19;;;;;;;0.38;0.30;;;;;;;7.95;72.90;99186.66;12971363;22;20024;-61
2023/03/14 17:04:22;;;;;;;0.10;0.10;;;;;;;7.62;73.58;99211.16;12922420;22;20024;-61
2023/03/14 17:09:24;;;;;;;0.10;0.10;;;;;;;7.41;73.10;99211.88;12973915;22;20015;-60
2023/03/14 17:14:25;;;;;;;0.20;0.10;;;;;;;7.22;73.28;99221.25;12973679;22;20051;-60
2023/03/14 17:19:26;;;;;;;0.30;0.10;;;;;;;7.13;72.84;99223.19;12988570;22;20030;-62
2023/03/14 17:24:28;;;;;;;2.53;0.10;;;;;;;7.16;72.18;99232.69;12978074;22;20094;-61
2023/03/14 17:29:29;;;;;;;0.30;0.10;;;;;;;7.16;72.33;99254.06;13004577;22;20084;-58
2023/03/14 17:34:31;;;;;;;0.10;0.00;;;;;;;7.25;72.88;99269.03;12976130;22;20023;-65
2023/03/14 17:39:32;;;;;;;0.10;0.08;;;;;;;7.32;72.12;99285.97;13003738;22;20023;-63
2023/03/14 17:44:34;;;;;;;0.52;0.40;;;;;;;7.45;72.23;99308.59;13012238;22;20389;-65
2023/03/14 17:49:37;;;;;;;0.98;0.47;;;;;;;7.48;72.41;99316.25;12985730;22;20031;-59
2023/03/14 17:54:38;;;;;;;1.10;0.10;;;;;;;7.51;72.30;99337.28;13018330;22;20080;-66
2023/03/14 17:59:41;;;;;;;0.45;0.10;;;;;;;7.46;71.99;99335.13;13001849;22;20118;-67
2023/03/14 18:04:42;;;;;;;1.23;0.20;;;;;;;7.44;72.01;99349.72;12988329;22;20106;-67
2023/03/14 18:09:44;;;;;;;0.47;0.20;;;;;;;7.42;71.94;99362.44;13024435;22;20660;-66
2023/03/14 18:14:45;;;;;;;3.47;0.43;;;;;;;7.33;71.29;99375.88;12994281;22;20091;-66
2023/03/14 18:19:47;;;;;;;2.15;0.20;;;;;;;7.31;71.25;99383.22;12983922;22;20050;-67
2023/03/14 18:24:49;;;;;;;2.40;0.50;;;;;;;7.34;70.97;99406.09;13017061;22;20636;-65
2023/03/14 18:29:50;;;;;;;2.88;0.50;;;;;;;7.31;70.51;99409.13;13019177;22;20043;-64
2023/03/14 18:34:52;;;;;;;4.68;0.38;;;;;;;7.31;70.65;99422.50;13028170;22;20008;-65
2023/03/14 18:39:53;;;;;;;3.95;0.43;;;;;;;7.25;69.64;99439.25;13035503;22;20016;-65
2023/03/14 18:44:54;;;;;;;5.45;1.38;;;;;;;7.31;70.25;99452.75;12984915;22;20046;-65
2023/03/14 18:49:56;;;;;;;5.15;0.80;;;;;;;7.36;70.16;99457.53;13006804;22;20068;-66
2023/03/14 18:54:57;;;;;;;4.28;0.90;;;;;;;7.53;70.18;99467.13;13031593;22;20007;-66
2023/03/14 18:59:59;;;;;;;8.60;1.80;;;;;;;7.48;70.15;99463.31;13039570;22;20054;-65
2023/03/14 19:05:01;;;;;;;9.35;1.13;;;;;;;7.58;70.40;99474.59;13041787;22;20024;-65
2023/03/14 19:10:02;;;;;;;10.18;1.40;;;;;;;7.65;70.28;99472.88;13040507;22;20000;-65
2023/03/14 19:15:04;;;;;;;10.38;1.00;;;;;;;7.65;70.15;99488.94;13048312;22;20011;-64
2023/03/14 19:20:07;;;;;;;13.15;2.33;;;;;;;7.68;70.70;99498.44;13013885;22;20026;-64
2023/03/14 19:25:09;;;;;;;12.32;2.38;;;;;;;7.68;70.37;99510.00;13039773;22;20027;-65
2023/03/14 19:30:11;;;;;;;5.18;1.90;;;;;;;7.64;70.65;99523.88;12986716;22;20012;-64
2023/03/14 19:35:12;;;;;;;11.10;2.30;;;;;;;7.57;70.71;99531.78;12974556;22;20020;-65
2023/03/14 19:40:14;;;;;;;10.57;2.80;;;;;;;7.54;70.98;99535.66;12975813;22;20023;-66
2023/03/14 19:45:15;;;;;;;8.55;1.60;;;;;;;7.61;70.57;99553.66;12974307;22;20008;-65
2023/03/14 19:50:17;;;;;;;10.27;2.10;;;;;;;7.61;69.80;99557.16;12973890;22;20087;-65
2023/03/14 19:55:18;;;;;;;7.35;1.50;;;;;;;7.73;69.98;99566.44;12976278;22;20020;-66
2023/03/14 20:00:21;;;;;;;15.05;1.77;;;;;;;7.74;70.38;99569.94;12974824;22;20091;-65
2023/03/14 20:05:23;;;;;;;9.80;1.77;;;;;;;7.77;69.86;99574.13;12976848;22;20003;-64
2023/03/14 20:10:24;;;;;;;6.13;2.22;;;;;;;7.95;69.26;99590.72;12974499;22;20008;-65
2023/03/14 20:15:25;;;;;;;6.18;1.65;;;;;;;8.02;69.56;99605.06;12945070;22;20059;-65
2023/03/14 20:20:27;;;;;;;8.68;2.30;;;;;;;7.89;69.46;99623.53;12963100;22;20075;-64
2023/03/14 20:25:28;;;;;;;9.30;2.55;;;;;;;8.14;68.81;99633.09;12935021;23;20166;-63
2023/03/14 20:30:30;;;;;;;7.60;1.90;;;;;;;8.07;69.18;99658.88;12931487;23;20032;-64
2023/03/14 20:35:31;;;;;;;6.32;2.22;;;;;;;8.12;68.59;99666.41;12946563;23;20028;-64
2023/03/14 20:40:33;;;;;;;13.77;2.95;;;;;;;8.07;69.24;99674.94;12959028;22;20012;-64
2023/03/14 20:45:34;;;;;;;15.35;2.65;;;;;;;8.06;69.14;99681.31;12970727;22;20004;-66
2023/03/14 20:50:35;;;;;;;9.88;2.60;;;;;;;7.93;68.92;99697.94;12969394;22;20050;-65
2023/03/14 20:55:37;;;;;;;7.63;1.60;;;;;;;7.82;69.44;99698.34;12970892;22;20083;-66
2023/03/14 21:00:39;;;;;;;7.78;2.38;;;;;;;7.89;69.28;99701.97;12970460;22;20094;-66
2023/03/14 21:05:41;;;;;;;7.53;2.20;;;;;;;8.03;69.15;99712.94;12970010;22;20020;-66
2023/03/14 21:10:46;;;;;;;10.88;1.83;;;;;;;8.00;68.79;99730.19;12968930;22;20014;-64
2023/03/14 21:15:48;;;;;;;7.05;2.50;;;;;;;7.94;69.12;99739.75;12943949;22;20027;-65
2023/03/14 21:20:53;;;;;;;9.52;2.53;;;;;;;7.95;69.09;99745.94;12943770;22;20012;-65
2023/03/14 21:25:57;;;;;;;9.65;2.40;;;;;;;7.86;69.42;99749.66;12920322;22;20012;-65
2023/03/14 21:31:05;;;;;;;11.88;3.35;;;;;;;7.65;69.45;99748.38;12969309;22;20016;-65
2023/03/14 21:36:07;;;;;;;9.18;2.40;;;;;;;7.73;69.51;99767.09;12943799;22;20019;-66
2023/03/14 21:41:08;;;;;;;4.63;1.80;;;;;;;7.58;68.33;99776.00;12970789;22;20035;-66
2023/03/14 21:46:11;;;;;;;14.30;2.17;;;;;;;7.62;68.87;99777.31;12944347;22;20020;-66
2023/03/14 21:51:13;;;;;;;8.18;1.98;;;;;;;7.68;69.17;99798.88;12970812;22;20024;-66
2023/03/14 21:56:14;;;;;;;7.63;1.33;;;;;;;7.66;68.87;99795.53;12970581;22;20039;-66
2023/03/14 22:01:16;;;;;;;11.73;2.70;;;;;;;7.61;68.61;99802.41;12970990;22;20008;-67
2023/03/14 22:06:17;;;;;;;9.95;1.60;;;;;;;7.58;68.29;99808.91;12970474;22;20016;-66
2023/03/14 22:11:18;;;;;;;10.07;2.05;;;;;;;7.62;68.84;99804.91;12981988;22;20027;-67
2023/03/14 22:16:20;;;;;;;8.80;1.65;;;;;;;7.61;68.96;99808.59;12940675;22;20051;-67
2023/03/14 22:21:21;;;;;;;6.97;1.85;;;;;;;7.51;68.79;99819.47;12976035;22;20063;-67
2023/03/14 22:26:23;;;;;;;4.40;0.95;;;;;;;7.40;68.36;99837.69;12943913;22;20024;-67
2023/03/14 22:31:24;;;;;;;3.97;0.98;;;;;;;7.46;68.07;99847.72;12946574;22;20028;-66
2023/03/14 22:36:25;;;;;;;3.80;1.42;;;;;;;7.30;68.35;99864.59;12921998;22;20016;-66
2023/03/14 22:41:27;;;;;;;6.75;1.75;;;;;;;7.27;68.03;99864.94;12971671;22;20066;-67
2023/03/14 22:46:28;;;;;;;4.97;0.93;;;;;;;7.24;68.21;99881.31;12923601;22;20067;-67
2023/03/14 22:51:31;;;;;;;9.00;1.30;;;;;;;7.27;67.75;99887.16;12972418;22;20019;-66
2023/03/14 22:56:32;;;;;;;8.93;0.90;;;;;;;7.18;67.82;99904.19;12973550;22;20023;-67
2023/03/14 23:01:34;;;;;;;8.23;1.00;;;;;;;7.07;68.32;99913.38;12972686;22;20068;-67
2023/03/14 23:06:35;;;;;;;12.20;2.05;;;;;;;7.17;67.80;99923.91;12944894;22;20222;-66
2023/03/14 23:11:38;;;;;;;6.93;1.20;;;;;;;7.09;67.66;99927.41;12946262;22;20245;-66
2023/03/14 23:16:39;;;;;;;9.00;1.50;;;;;;;6.95;68.28;99938.69;12971411;22;20017;-65
2023/03/14 23:21:41;;;;;;;10.85;1.58;;;;;;;6.98;67.75;99941.06;12977006;22;20019;-65
2023/03/14 23:26:44;;;;;;;9.25;1.83;;;;;;;6.88;68.73;99945.72;12972574;22;20047;-67
2023/03/14 23:31:46;;;;;;;7.75;1.92;;;;;;;6.58;68.67;99947.94;12970708;22;20012;-65
2023/03/14 23:36:47;;;;;;;6.38;1.63;;;;;;;6.41;68.15;99951.50;12971849;22;20082;-66
2023/03/14 23:41:49;;;;;;;8.05;1.08;;;;;;;6.46;67.75;99942.03;12971483;22;20100;-66